Time;durP1;ratioP1;P1;durP2;ratioP2;P2;SDS_P1;SDS_P2;PMS_P1;PMS_P2;Temp;Humidity;BMP_temperature;BMP_pressure;BME280_temperature;BME280_humidity;BME280_pressure;Samples;Min_cycle;Max_cycle;Signal;HPM_P1;HPM_P2
2024/02/10 00:01:17;;;;;;;73.47;65.82;;;;;;;20.85;37.92;98621.75;4993671;28;20046;-64
2024/02/10 00:03:45;;;;;;;46.45;42.25;;;;;;;20.79;37.90;98616.34;4999819;28;20033;-65
2024/02/10 00:06:15;;;;;;;46.38;42.15;;;;;;;20.75;38.14;98622.38;4990040;28;20160;-64
2024/02/10 00:08:44;;;;;;;40.35;37.03;;;;;;;20.71;38.12;98626.53;4991489;28;20073;-65
2024/02/10 00:11:13;;;;;;;25.30;22.97;;;;;;;20.72;38.17;98622.84;4990372;28;20119;-65
2024/02/10 00:13:41;;;;;;;30.57;27.83;;;;;;;20.68;38.12;98619.88;4988541;28;20092;-65
2024/02/10 00:16:08;;;;;;;40.17;36.47;;;;;;;20.68;38.03;98621.72;4985615;28;20025;-65
2024/02/10 00:18:34;;;;;;;40.83;36.75;;;;;;;20.67;37.98;98625.41;4995742;28;20133;-65
2024/02/10 00:21:01;;;;;;;36.00;32.67;;;;;;;20.63;38.22;98627.72;4984883;28;20042;-65
2024/02/10 00:23:28;;;;;;;49.45;44.58;;;;;;;20.64;38.26;98631.16;4992673;28;20065;-65
2024/02/10 00:25:54;;;;;;;60.17;53.55;;;;;;;20.60;38.23;98627.38;4988240;28;20080;-65
2024/02/10 00:28:20;;;;;;;49.58;45.15;;;;;;;20.59;38.38;98631.88;4989368;28;20129;-65
2024/02/10 00:30:46;;;;;;;3.85;2.83;;;;;;;20.53;38.34;98624.91;4988762;28;20050;-64
2024/02/10 00:33:15;;;;;;;3.33;2.33;;;;;;;20.51;38.11;98622.50;4988540;28;20033;-65
2024/02/10 00:35:40;;;;;;;3.78;2.20;;;;;;;20.54;38.30;98625.69;4989727;28;20498;-65
2024/02/10 00:38:06;;;;;;;5.00;2.47;;;;;;;20.50;38.51;98622.72;4993698;28;20053;-65
2024/02/10 00:40:31;;;;;;;4.70;2.58;;;;;;;20.49;38.32;98613.19;4988203;28;20041;-65
2024/02/10 00:42:57;;;;;;;5.15;4.45;;;;;;;20.50;38.49;98620.88;4989841;28;20061;-63
2024/02/10 00:45:23;;;;;;;5.60;2.60;;;;;;;20.47;38.38;98617.91;4984826;28;20035;-65
2024/02/10 00:47:49;;;;;;;3.42;2.45;;;;;;;20.45;38.30;98620.78;4982652;28;20220;-65
2024/02/10 00:50:17;;;;;;;8.38;6.20;;;;;;;20.43;38.43;98625.50;4988916;28;20029;-65
2024/02/10 00:52:49;;;;;;;3.47;2.40;;;;;;;20.42;38.36;98620.44;5004630;28;20034;-65
2024/02/10 00:55:27;;;;;;;8.27;6.45;;;;;;;20.41;38.47;98622.28;4988204;28;20411;-65
2024/02/10 00:57:53;;;;;;;35.97;31.38;;;;;;;20.40;38.42;98630.44;4988416;28;20447;-65
2024/02/10 01:00:21;;;;;;;6.82;6.28;;;;;;;20.36;38.65;98627.47;5008445;28;20077;-64
2024/02/10 01:02:47;;;;;;;2.85;2.35;;;;;;;20.36;38.72;98626.66;4983579;28;20030;-64
2024/02/10 01:05:13;;;;;;;5.15;2.47;;;;;;;20.39;38.57;98631.47;4992041;28;20034;-65
2024/02/10 01:07:39;;;;;;;3.50;2.10;;;;;;;20.32;38.67;98615.75;5002714;28;20088;-65
2024/02/10 01:10:06;;;;;;;3.35;2.50;;;;;;;20.30;38.63;98611.75;5000457;28;20527;-65
2024/02/10 01:12:32;;;;;;;3.45;2.35;;;;;;;20.32;38.52;98623.69;4995110;28;20046;-65
2024/02/10 01:14:58;;;;;;;4.40;2.60;;;;;;;20.31;38.56;98626.56;4982651;28;20068;-65
2024/02/10 01:17:27;;;;;;;4.65;2.30;;;;;;;20.30;38.63;98619.69;4989423;28;20721;-65
2024/02/10 01:19:54;;;;;;;6.13;2.85;;;;;;;20.30;38.77;98622.31;4985671;28;20553;-65
2024/02/10 01:22:26;;;;;;;3.40;2.47;;;;;;;20.27;38.71;98626.22;4978022;28;20045;-65
2024/02/10 01:24:54;;;;;;;3.28;2.38;;;;;;;20.25;38.69;98619.56;4983466;28;20382;-65
2024/02/10 01:27:21;;;;;;;3.85;2.33;;;;;;;20.25;38.69;98620.38;4989134;28;20056;-64
2024/02/10 01:29:47;;;;;;;3.22;2.47;;;;;;;20.17;38.69;98613.63;4986741;28;20510;-65
2024/02/10 01:32:19;;;;;;;4.43;2.67;;;;;;;20.22;38.68;98626.13;4989749;28;20034;-65
2024/02/10 01:34:49;;;;;;;3.70;2.13;;;;;;;20.23;38.63;98628.53;4989152;28;20047;-65
2024/02/10 01:37:18;;;;;;;4.65;2.30;;;;;;;20.20;38.63;98630.84;4989996;28;20042;-65
2024/02/10 01:39:45;;;;;;;3.67;2.27;;;;;;;20.19;38.72;98631.88;4984683;28;20049;-65
2024/02/10 01:42:18;;;;;;;3.30;2.38;;;;;;;20.19;38.72;98629.25;4985897;28;20361;-65
2024/02/10 01:44:45;;;;;;;135.82;87.80;;;;;;;20.17;38.75;98628.69;4989670;28;20382;-64
2024/02/10 01:47:14;;;;;;;251.23;136.27;;;;;;;20.16;38.72;98633.16;4979161;28;20105;-65
2024/02/10 01:49:43;;;;;;;71.28;45.95;;;;;;;20.16;38.77;98635.81;4989620;28;20116;-65
2024/02/10 01:52:11;;;;;;;4.75;2.60;;;;;;;20.15;38.88;98636.84;4981438;28;20060;-65
2024/02/10 01:54:39;;;;;;;3.05;2.20;;;;;;;20.16;38.77;98637.66;4981919;28;20051;-64
2024/02/10 01:57:06;;;;;;;2.88;2.38;;;;;;;20.16;38.77;98638.44;4983530;28;20049;-65
2024/02/10 01:59:37;;;;;;;354.75;172.38;;;;;;;20.12;38.71;98634.69;4992934;28;20375;-65
2024/02/10 02:02:03;;;;;;;133.43;83.35;;;;;;;20.11;38.79;98633.06;4984334;28;20043;-65
2024/02/10 02:04:31;;;;;;;158.18;99.13;;;;;;;20.11;38.77;98635.72;4988227;28;20042;-65
2024/02/10 02:07:00;;;;;;;227.77;127.53;;;;;;;20.11;38.86;98632.28;4983369;28;20157;-65
2024/02/10 02:09:27;;;;;;;4.70;2.55;;;;;;;20.09;38.82;98632.47;4984347;28;20133;-65
2024/02/10 02:11:53;;;;;;;3.83;2.53;;;;;;;20.07;38.92;98634.56;4984865;28;20543;-65
2024/02/10 02:14:18;;;;;;;105.35;82.72;;;;;;;20.09;38.90;98636.97;4982800;28;20034;-64
2024/02/10 02:16:48;;;;;;;202.95;111.50;;;;;;;20.07;38.82;98634.56;4988438;28;20038;-65
2024/02/10 02:19:16;;;;;;;4.13;2.20;;;;;;;20.02;39.02;98628.38;4991799;28;20038;-65
2024/02/10 02:21:42;;;;;;;207.30;109.43;;;;;;;20.04;38.84;98639.50;4983020;28;20038;-65
2024/02/10 02:24:08;;;;;;;327.52;162.38;;;;;;;20.01;38.94;98622.28;4985492;28;20062;-65
2024/02/10 02:26:34;;;;;;;307.25;156.07;;;;;;;20.02;39.02;98626.53;5005028;28;20631;-65
2024/02/10 02:29:00;;;;;;;310.77;156.73;;;;;;;20.00;38.90;98633.09;4982801;28;20034;-65
2024/02/10 02:31:25;;;;;;;271.63;143.05;;;;;;;20.01;38.87;98624.94;4985869;28;20472;-64
2024/02/10 02:33:53;;;;;;;269.35;141.82;;;;;;;20.01;38.83;98624.94;4989586;28;20120;-65
2024/02/10 02:36:19;;;;;;;261.73;139.75;;;;;;;20.00;38.94;98633.91;4987945;28;20046;-65
2024/02/10 02:38:48;;;;;;;330.25;162.32;;;;;;;20.00;39.04;98625.16;4988481;28;20088;-64
2024/02/10 02:41:14;;;;;;;279.83;145.38;;;;;;;20.00;38.89;98630.44;4990020;28;20119;-65
2024/02/10 02:43:39;;;;;;;295.95;151.55;;;;;;;19.98;38.91;98628.03;4987912;28;20046;-64
2024/02/10 02:46:06;;;;;;;279.60;146.57;;;;;;;20.00;38.87;98625.97;4986264;28;20037;-65
2024/02/10 02:48:32;;;;;;;244.82;134.35;;;;;;;19.95;38.84;98622.44;4990246;28;20658;-65
2024/02/10 02:50:59;;;;;;;149.50;99.93;;;;;;;19.96;38.92;98621.41;4987631;28;20034;-65
2024/02/10 02:53:25;;;;;;;58.85;52.97;;;;;;;19.94;38.97;98632.19;4981305;28;20423;-65
2024/02/10 02:55:52;;;;;;;104.13;84.13;;;;;;;19.94;39.06;98628.75;4979607;28;20041;-65
2024/02/10 02:58:18;;;;;;;159.95;105.57;;;;;;;19.90;39.11;98625.75;4992906;28;20042;-64
2024/02/10 03:00:48;;;;;;;172.18;110.47;;;;;;;19.90;38.91;98617.81;4986641;28;20662;-64
2024/02/10 03:03:14;;;;;;;224.50;127.15;;;;;;;19.91;38.90;98624.72;4989441;28;20046;-65
2024/02/10 03:05:40;;;;;;;186.27;114.80;;;;;;;19.90;39.02;98623.09;4984471;28;20030;-65
2024/02/10 03:08:07;;;;;;;176.77;111.72;;;;;;;19.85;39.11;98620.38;4991226;28;20036;-65
2024/02/10 03:10:32;;;;;;;156.38;104.65;;;;;;;19.84;39.35;98622.22;4984977;28;20038;-64
2024/02/10 03:12:58;;;;;;;233.70;129.50;;;;;;;19.87;39.11;98624.38;5001354;28;20044;-65
2024/02/10 03:15:27;;;;;;;228.65;128.70;;;;;;;19.85;39.13;98625.66;4988456;28;20050;-65
2024/02/10 03:17:55;;;;;;;298.65;151.93;;;;;;;19.85;39.13;98633.56;4988166;28;20046;-65
2024/02/10 03:20:23;;;;;;;293.50;149.80;;;;;;;19.84;39.12;98631.97;4990345;28;20116;-64
2024/02/10 03:22:54;;;;;;;338.17;164.77;;;;;;;19.83;39.18;98622.44;4983258;28;20180;-64
2024/02/10 03:25:21;;;;;;;309.95;155.32;;;;;;;19.81;39.16;98622.69;4987245;28;20038;-65
2024/02/10 03:27:47;;;;;;;333.80;162.25;;;;;;;19.80;39.18;98628.19;4988231;28;20042;-64
2024/02/10 03:30:15;;;;;;;270.08;142.38;;;;;;;19.79;39.24;98626.59;4993884;28;20038;-64
2024/02/10 03:32:42;;;;;;;276.85;144.48;;;;;;;19.77;39.29;98626.81;4986648;28;20698;-64
2024/02/10 03:35:08;;;;;;;260.75;139.10;;;;;;;19.77;39.19;98634.75;4987745;28;20034;-65
2024/02/10 03:37:35;;;;;;;252.30;135.90;;;;;;;19.75;39.21;98628.06;4992524;28;20106;-65
2024/02/10 03:40:09;;;;;;;311.20;154.75;;;;;;;19.75;39.26;98623.63;4998297;28;20046;-65
2024/02/10 03:42:35;;;;;;;377.38;177.68;;;;;;;19.76;39.25;98629.69;4989432;28;20038;-64
2024/02/10 03:45:01;;;;;;;349.65;168.13;;;;;;;19.75;39.19;98628.06;4988026;28;20030;-65
2024/02/10 03:47:26;;;;;;;326.60;159.73;;;;;;;19.74;39.23;98629.91;5006843;28;20100;-65
2024/02/10 03:49:52;;;;;;;330.38;160.73;;;;;;;19.72;39.17;98625.91;4993308;28;20142;-65
2024/02/10 03:52:17;;;;;;;367.73;175.52;;;;;;;19.74;39.17;98626.47;5008715;28;20386;-65
2024/02/10 03:54:43;;;;;;;348.08;168.07;;;;;;;19.72;39.29;98620.63;4987870;28;20073;-65
2024/02/10 03:57:08;;;;;;;344.73;166.60;;;;;;;19.72;39.12;98624.06;5007243;28;20045;-64
2024/02/10 03:59:35;;;;;;;342.38;167.00;;;;;;;19.68;39.06;98622.91;4978278;28;20280;-65
2024/02/10 04:02:01;;;;;;;317.70;156.80;;;;;;;19.68;39.30;98616.84;4988166;28;20104;-64
2024/02/10 04:04:28;;;;;;;358.75;171.23;;;;;;;19.70;39.24;98630.59;4986056;28;20121;-65
2024/02/10 04:06:53;;;;;;;340.45;165.23;;;;;;;19.70;39.25;98628.78;4987996;28;20144;-65
2024/02/10 04:09:21;;;;;;;341.75;164.98;;;;;;;19.69;39.21;98629.81;4987409;28;20451;-64
2024/02/10 04:11:46;;;;;;;327.65;161.02;;;;;;;19.68;39.21;98627.41;4987619;28;20050;-64
2024/02/10 04:14:20;;;;;;;310.85;155.60;;;;;;;19.66;39.30;98625.00;4992975;28;20038;-65
2024/02/10 04:16:52;;;;;;;319.33;158.35;;;;;;;19.65;39.27;98618.09;4990136;28;20038;-65
2024/02/10 04:19:21;;;;;;;301.58;151.88;;;;;;;19.65;39.27;98622.59;4982353;28;20711;-65
2024/02/10 04:21:54;;;;;;;329.42;162.40;;;;;;;19.59;39.32;98625.13;4983707;28;20347;-65
2024/02/10 04:24:20;;;;;;;354.15;170.48;;;;;;;19.63;39.32;98628.09;4975770;28;20053;-64
2024/02/10 04:26:48;;;;;;;362.10;173.60;;;;;;;19.61;39.24;98628.34;4983938;28;20042;-65
2024/02/10 04:29:14;;;;;;;377.45;178.60;;;;;;;19.61;39.31;98630.97;5002125;28;21520;-65
2024/02/10 04:31:42;;;;;;;346.33;167.52;;;;;;;19.64;39.24;98632.34;4988203;28;20037;-65
2024/02/10 04:34:08;;;;;;;316.27;157.13;;;;;;;19.66;39.30;98632.91;4991819;28;20039;-65
2024/02/10 04:36:35;;;;;;;309.58;155.27;;;;;;;19.64;39.24;98634.19;4991302;28;20073;-65
2024/02/10 04:39:03;;;;;;;336.65;166.30;;;;;;;19.64;39.29;98634.97;4983609;28;20929;-65
2024/02/10 04:41:31;;;;;;;353.60;170.40;;;;;;;19.65;39.23;98633.16;4981543;28;20058;-64
2024/02/10 04:43:56;;;;;;;371.58;177.20;;;;;;;19.66;39.24;98632.91;4988661;28;20497;-65
2024/02/10 04:46:23;;;;;;;395.42;186.27;;;;;;;19.68;39.54;98635.31;4989276;28;20053;-64
2024/02/10 04:48:52;;;;;;;370.77;176.82;;;;;;;19.67;39.26;98629.22;4988656;28;20081;-64
2024/02/10 04:51:26;;;;;;;414.85;193.57;;;;;;;19.65;39.15;98626.03;4988332;28;20080;-64
2024/02/10 04:53:52;;;;;;;411.08;191.43;;;;;;;19.68;39.31;98627.41;4984602;28;20052;-64
2024/02/10 04:56:20;;;;;;;438.58;201.15;;;;;;;19.66;39.29;98624.19;4987133;28;20030;-64
2024/02/10 04:58:49;;;;;;;493.35;222.57;;;;;;;19.67;39.29;98629.22;4987676;28;20035;-64
2024/02/10 05:01:19;;;;;;;431.58;198.25;;;;;;;19.65;39.23;98626.03;4979148;28;20085;-64
2024/02/10 05:03:46;;;;;;;415.25;192.85;;;;;;;19.67;39.20;98628.44;4988269;28;20779;-64
2024/02/10 05:06:11;;;;;;;436.25;199.57;;;;;;;19.67;39.17;98634.50;4989304;28;20052;-64
2024/02/10 05:08:40;;;;;;;417.77;193.32;;;;;;;19.68;39.25;98636.13;4981122;28;20034;-64
2024/02/10 05:11:05;;;;;;;456.48;207.48;;;;;;;19.67;39.31;98628.44;4986781;28;20050;-64
2024/02/10 05:13:32;;;;;;;445.13;204.18;;;;;;;19.65;39.38;98636.59;4990119;28;20077;-64
2024/02/10 05:15:57;;;;;;;395.73;185.32;;;;;;;19.67;39.22;98644.28;4987577;28;20042;-64
2024/02/10 05:18:23;;;;;;;366.98;174.48;;;;;;;19.61;39.17;98641.53;4984459;28;20036;-64
2024/02/10 05:20:48;;;;;;;484.83;219.15;;;;;;;19.66;39.29;98642.66;4991893;28;21115;-64
2024/02/10 05:23:14;;;;;;;521.13;234.35;;;;;;;19.61;39.31;98646.00;4985326;28;20055;-64
2024/02/10 05:25:40;;;;;;;474.25;213.93;;;;;;;19.56;39.30;98646.69;4988289;28;20619;-64
2024/02/10 05:28:07;;;;;;;468.23;210.55;;;;;;;19.58;39.37;98649.91;4984758;28;20042;-64
2024/02/10 05:30:32;;;;;;;479.17;214.63;;;;;;;19.56;39.54;98641.41;4990723;28;20078;-64
2024/02/10 05:33:02;;;;;;;422.65;194.48;;;;;;;19.60;39.43;98653.13;4982230;28;20046;-64
2024/02/10 05:35:30;;;;;;;441.00;200.40;;;;;;;19.58;39.29;98644.63;4982035;28;20050;-64
2024/02/10 05:38:02;;;;;;;429.67;197.43;;;;;;;19.59;39.56;98651.53;4984632;28;20431;-64
2024/02/10 05:40:28;;;;;;;427.38;195.75;;;;;;;19.59;39.25;98651.53;4981200;28;20054;-64
2024/02/10 05:42:58;;;;;;;423.60;194.27;;;;;;;19.63;39.40;98654.50;4983487;28;20046;-64
2024/02/10 05:45:25;;;;;;;430.25;196.43;;;;;;;19.64;39.34;98650.03;4981932;28;20034;-64
2024/02/10 05:47:51;;;;;;;423.10;194.20;;;;;;;19.63;39.39;98659.78;4985914;28;20038;-64
2024/02/10 05:50:19;;;;;;;429.40;196.20;;;;;;;19.65;39.36;98660.34;4979895;28;20084;-64
2024/02/10 05:52:45;;;;;;;504.05;226.30;;;;;;;19.65;39.30;98660.34;4982273;28;20100;-64
2024/02/10 05:55:20;;;;;;;436.95;198.32;;;;;;;19.64;39.42;98663.22;4982161;28;20034;-64
2024/02/10 05:57:49;;;;;;;446.63;202.23;;;;;;;19.67;39.36;98668.03;4983045;28;20042;-64
2024/02/10 06:00:16;;;;;;;459.40;207.50;;;;;;;19.66;39.41;98667.25;4988676;28;20494;-64
2024/02/10 06:02:41;;;;;;;459.27;206.07;;;;;;;19.65;39.49;98668.28;4980445;28;20057;-64
2024/02/10 06:05:08;;;;;;;475.95;213.43;;;;;;;19.60;39.54;98674.25;4987390;28;20455;-64
2024/02/10 06:07:35;;;;;;;446.40;201.88;;;;;;;19.63;39.42;98686.19;5000846;28;20045;-64
2024/02/10 06:10:07;;;;;;;478.23;213.75;;;;;;;19.64;39.39;98685.16;4982058;28;20618;-64
2024/02/10 06:12:33;;;;;;;483.42;216.23;;;;;;;19.64;39.50;98685.16;4986783;28;20057;-64
2024/02/10 06:14:58;;;;;;;511.65;228.10;;;;;;;19.63;39.47;98686.19;4983040;28;20097;-64
2024/02/10 06:17:24;;;;;;;475.85;213.77;;;;;;;19.63;39.46;98678.25;4986597;28;20050;-64
2024/02/10 06:19:50;;;;;;;428.58;195.82;;;;;;;19.61;39.53;98678.50;4984800;28;20375;-64
2024/02/10 06:22:18;;;;;;;390.52;182.68;;;;;;;19.65;39.50;98691.22;4980597;28;20042;-64
2024/02/10 06:24:44;;;;;;;374.17;177.00;;;;;;;19.66;39.45;98688.34;4983016;28;20490;-64
2024/02/10 06:27:10;;;;;;;358.75;171.57;;;;;;;19.65;39.49;98691.22;4980737;28;20052;-64
2024/02/10 06:29:35;;;;;;;371.13;176.05;;;;;;;19.63;39.55;98694.09;4982098;28;20035;-64
2024/02/10 06:32:05;;;;;;;401.58;186.55;;;;;;;19.63;39.61;98688.81;4982412;28;20049;-63
2024/02/10 06:34:31;;;;;;;442.85;200.45;;;;;;;19.59;39.55;98682.41;4984592;28;20048;-64
2024/02/10 06:36:57;;;;;;;449.50;202.70;;;;;;;19.62;39.59;98695.13;4986451;28;20061;-63
2024/02/10 06:39:23;;;;;;;428.67;196.95;;;;;;;19.61;39.58;98693.53;4983231;28;20463;-64
2024/02/10 06:41:50;;;;;;;443.63;202.25;;;;;;;19.63;39.53;98702.03;4984672;28;20026;-64
2024/02/10 06:44:17;;;;;;;436.63;199.02;;;;;;;19.62;39.57;98708.34;4983640;28;20042;-65
2024/02/10 06:46:43;;;;;;;401.60;185.57;;;;;;;19.61;39.55;98704.09;4979487;28;20023;-65
2024/02/10 06:49:08;;;;;;;369.27;175.02;;;;;;;19.63;39.65;98712.59;4983133;28;20394;-64
2024/02/10 06:51:34;;;;;;;390.90;183.30;;;;;;;19.63;39.50;98717.06;4981117;28;20081;-64
2024/02/10 06:54:02;;;;;;;419.33;192.90;;;;;;;19.64;39.55;98721.31;4985227;28;20042;-64
2024/02/10 06:56:28;;;;;;;429.20;196.07;;;;;;;19.63;39.59;98728.44;4983048;28;20081;-64
2024/02/10 06:58:54;;;;;;;372.33;176.73;;;;;;;19.63;39.63;98725.78;4983014;28;20034;-64
2024/02/10 07:01:19;;;;;;;403.13;186.60;;;;;;;19.62;39.64;98726.81;4979956;28;20407;-64
2024/02/10 07:03:45;;;;;;;369.08;174.93;;;;;;;19.63;39.73;98728.44;4981528;28;20079;-64
2024/02/10 07:06:17;;;;;;;382.55;179.65;;;;;;;19.63;39.58;98728.44;4978039;28;20117;-64
2024/02/10 07:08:46;;;;;;;433.85;197.18;;;;;;;19.64;39.62;98730.03;4985630;28;20459;-64
2024/02/10 07:11:12;;;;;;;434.02;198.32;;;;;;;19.60;39.57;98727.06;4985846;28;20054;-64
2024/02/10 07:13:38;;;;;;;421.17;193.23;;;;;;;19.63;39.62;98733.72;4978930;28;20030;-64
2024/02/10 07:16:06;;;;;;;382.83;178.70;;;;;;;19.70;39.50;98738.88;5002164;28;20050;-64
2024/02/10 07:18:32;;;;;;;385.75;180.57;;;;;;;19.87;39.06;98730.03;4994613;28;20065;-64
2024/02/10 07:20:59;;;;;;;379.70;178.98;;;;;;;19.94;38.89;98742.34;4980717;28;20062;-64
2024/02/10 07:23:26;;;;;;;369.60;174.50;;;;;;;20.12;38.51;98740.38;4985430;28;20088;-64
2024/02/10 07:25:52;;;;;;;396.38;184.10;;;;;;;20.15;38.55;98741.75;4990455;28;20516;-64
2024/02/10 07:28:21;;;;;;;367.13;173.80;;;;;;;20.12;38.71;98743.00;4988528;28;20046;-64
2024/02/10 07:30:51;;;;;;;367.35;174.73;;;;;;;20.13;38.75;98739.34;4982196;28;20594;-64
2024/02/10 07:33:18;;;;;;;373.25;176.48;;;;;;;20.11;38.81;98745.88;4983750;28;20116;-64
2024/02/10 07:35:49;;;;;;;385.48;180.57;;;;;;;20.15;38.74;98747.03;4983086;28;20407;-65
2024/02/10 07:38:18;;;;;;;394.70;183.85;;;;;;;20.16;38.94;98751.28;4983145;28;20050;-64
2024/02/10 07:40:44;;;;;;;410.95;189.98;;;;;;;20.16;38.80;98759.19;4985907;28;20042;-64
2024/02/10 07:43:13;;;;;;;409.05;189.45;;;;;;;20.18;38.83;98754.47;4985005;28;20125;-64
2024/02/10 07:45:39;;;;;;;384.13;180.60;;;;;;;20.20;38.64;98755.06;4976562;28;20046;-63
2024/02/10 07:48:06;;;;;;;372.98;176.82;;;;;;;20.15;38.99;98766.31;4984725;28;20201;-64
2024/02/10 07:50:32;;;;;;;369.15;175.48;;;;;;;20.26;38.73;98763.88;4979666;28;20047;-64
2024/02/10 07:52:59;;;;;;;365.38;173.77;;;;;;;20.28;38.54;98767.09;4984357;28;20459;-64
2024/02/10 07:55:25;;;;;;;803.40;340.00;;;;;;;20.73;39.60;98773.38;4979261;28;20790;-64
2024/02/10 07:57:56;;;;;;;744.85;312.63;;;;;;;21.21;38.02;98774.78;4980383;28;20058;-64
2024/02/10 08:00:22;;;;;;;649.80;280.67;;;;;;;21.38;37.26;98780.94;4977767;28;20149;-64
2024/02/10 08:02:47;;;;;;;602.92;265.38;;;;;;;21.38;37.21;98780.94;4993942;28;21440;-64
2024/02/10 08:05:20;;;;;;;567.83;249.20;;;;;;;21.32;37.62;98783.72;4988286;28;20122;-64
2024/02/10 08:07:45;;;;;;;573.88;252.00;;;;;;;21.29;37.60;98778.91;4980528;28;20048;-64
2024/02/10 08:10:11;;;;;;;589.63;258.67;;;;;;;21.27;37.70;98788.94;4976081;28;21050;-63
2024/02/10 08:12:36;;;;;;;615.95;269.73;;;;;;;21.27;37.55;98800.34;4980783;28;20376;-64
2024/02/10 08:15:02;;;;;;;589.38;258.73;;;;;;;21.25;37.69;98791.03;4985631;28;21222;-63
2024/02/10 08:17:30;;;;;;;568.70;250.13;;;;;;;21.24;37.63;98799.97;4983041;28;20073;-64
2024/02/10 08:19:56;;;;;;;580.10;254.70;;;;;;;21.26;37.34;98805.88;4987114;28;20057;-63
2024/02/10 08:22:27;;;;;;;582.80;256.83;;;;;;;21.24;37.59;98806.09;4983303;28;20057;-62
2024/02/10 08:24:55;;;;;;;582.28;256.70;;;;;;;21.37;37.45;98802.38;4986531;28;20076;-63
2024/02/10 08:27:31;;;;;;;587.53;258.30;;;;;;;21.80;36.62;98793.81;5004973;28;20367;-62
2024/02/10 08:29:58;;;;;;;572.75;251.68;;;;;;;22.27;35.94;98801.44;4985913;28;20042;-62
2024/02/10 08:32:25;;;;;;;592.40;260.05;;;;;;;22.37;35.78;98806.06;4982221;28;20442;-63
2024/02/10 08:34:51;;;;;;;587.90;257.83;;;;;;;22.35;35.82;98808.16;4985815;28;20463;-63
2024/02/10 08:37:17;;;;;;;623.15;271.45;;;;;;;22.31;36.19;98808.63;4998064;28;20115;-63
2024/02/10 08:39:44;;;;;;;693.95;299.67;;;;;;;22.48;36.03;98810.44;4982787;28;20057;-63
2024/02/10 08:42:14;;;;;;;626.10;274.05;;;;;;;22.30;35.97;98812.34;4984371;28;20042;-63
2024/02/10 08:44:40;;;;;;;;;;;;;;;22.25;36.49;98816.75;4986080;28;20050;-63
2024/02/10 08:47:07;;;;;;;611.10;267.58;;;;;;;22.10;36.55;98822.66;4990519;28;19976;-63
2024/02/10 08:49:36;;;;;;;598.70;262.88;;;;;;;22.04;36.87;98823.56;4984811;28;20181;-63
2024/02/10 08:52:07;;;;;;;621.67;271.48;;;;;;;21.93;36.91;98825.28;4989627;28;20358;-63
2024/02/10 08:54:32;;;;;;;663.30;288.27;;;;;;;21.90;36.98;98825.78;4983686;28;20053;-62
2024/02/10 08:57:00;;;;;;;690.95;299.25;;;;;;;21.82;36.91;98822.72;4984198;28;20042;-63
2024/02/10 08:59:32;;;;;;;655.05;286.35;;;;;;;21.86;36.73;98829.13;4983126;28;20467;-63
2024/02/10 09:02:02;;;;;;;635.90;281.08;;;;;;;21.80;36.95;98832.75;4984164;28;20088;-63
2024/02/10 09:04:31;;;;;;;617.45;273.00;;;;;;;21.75;36.93;98825.53;4999844;28;20050;-63
2024/02/10 09:06:57;;;;;;;634.90;278.90;;;;;;;21.73;37.21;98832.91;4985999;28;20054;-62
2024/02/10 09:09:29;;;;;;;687.60;300.88;;;;;;;21.74;37.21;98829.22;4977236;28;20053;-59
2024/02/10 09:11:55;;;;;;;658.35;289.65;;;;;;;21.91;36.80;98839.81;4984433;28;20112;-63
2024/02/10 09:14:21;;;;;;;650.92;286.33;;;;;;;22.09;36.44;98831.66;4982761;28;20454;-63
2024/02/10 09:16:47;;;;;;;639.25;281.90;;;;;;;22.08;36.58;98832.69;4982426;28;20030;-61
2024/02/10 09:19:15;;;;;;;644.63;283.65;;;;;;;22.13;36.27;98840.72;4985805;28;20344;-63
2024/02/10 09:21:41;;;;;;;647.55;285.38;;;;;;;22.05;36.58;98837.66;4978280;28;20387;-63
2024/02/10 09:24:09;;;;;;;647.03;284.30;;;;;;;22.05;36.35;98835.81;4982083;28;20042;-63
2024/02/10 09:26:35;;;;;;;640.83;280.23;;;;;;;22.00;36.93;98843.66;4988572;28;20026;-63
2024/02/10 09:29:01;;;;;;;644.85;281.20;;;;;;;21.98;36.66;98853.72;4991621;28;20034;-63
2024/02/10 09:31:28;;;;;;;658.92;286.67;;;;;;;21.97;36.88;98852.09;4976079;28;20453;-62
2024/02/10 09:33:54;;;;;;;650.63;283.63;;;;;;;21.93;36.70;98858.94;4982815;28;20042;-63
2024/02/10 09:36:20;;;;;;;653.95;285.50;;;;;;;21.88;36.77;98853.53;4982000;28;20054;-62
2024/02/10 09:38:45;;;;;;;667.47;291.17;;;;;;;21.87;37.24;98862.53;4983160;28;20489;-62
2024/02/10 09:41:12;;;;;;;656.83;286.77;;;;;;;21.73;37.45;98858.59;4992113;28;20606;-63
2024/02/10 09:43:50;;;;;;;661.38;288.73;;;;;;;21.76;37.25;98869.50;4986268;28;20118;-61
2024/02/10 09:46:16;;;;;;;670.05;291.60;;;;;;;21.78;37.36;98862.13;4978378;28;20038;-62
2024/02/10 09:48:47;;;;;;;671.70;293.42;;;;;;;21.83;36.97;98856.91;4979277;28;20065;-62
2024/02/10 09:51:13;;;;;;;673.33;293.63;;;;;;;21.91;36.94;98859.19;4981228;28;20038;-63
2024/02/10 09:53:41;;;;;;;662.90;290.25;;;;;;;22.06;36.59;98855.16;4997963;28;20041;-63
2024/02/10 09:56:10;;;;;;;659.60;289.42;;;;;;;22.27;36.67;98849.94;4980495;28;20062;-63
2024/02/10 09:58:49;;;;;;;654.15;288.10;;;;;;;22.45;35.93;98853.38;4984298;28;20633;-63
2024/02/10 10:01:15;;;;;;;655.70;288.42;;;;;;;22.33;36.39;98858.78;4978402;28;20046;-62
2024/02/10 10:03:41;;;;;;;656.88;288.38;;;;;;;22.31;36.33;98858.22;4979855;28;20864;-62
2024/02/10 10:06:10;;;;;;;657.97;289.02;;;;;;;22.22;36.55;98857.81;4981090;28;20372;-63
2024/02/10 10:08:38;;;;;;;640.00;282.27;;;;;;;22.19;36.77;98860.16;4980589;28;20065;-62
2024/02/10 10:11:10;;;;;;;631.40;278.55;;;;;;;22.11;36.65;98863.22;4982811;28;20042;-62
2024/02/10 10:13:40;;;;;;;629.78;277.80;;;;;;;22.09;36.55;98866.13;4998679;28;20131;-62
2024/02/10 10:16:09;;;;;;;643.67;283.20;;;;;;;22.05;37.02;98858.88;4981593;28;20050;-62
2024/02/10 10:18:35;;;;;;;656.72;288.88;;;;;;;22.02;36.66;98862.78;4979922;28;20070;-62
2024/02/10 10:21:04;;;;;;;669.38;294.55;;;;;;;22.00;37.04;98868.31;4981198;28;20347;-62
2024/02/10 10:23:31;;;;;;;671.50;295.42;;;;;;;21.94;37.15;98864.00;4983922;28;20121;-63
2024/02/10 10:25:57;;;;;;;674.97;297.25;;;;;;;21.93;37.06;98866.88;4980013;28;20054;-63
2024/02/10 10:28:23;;;;;;;671.92;295.95;;;;;;;21.86;36.92;98859.06;4986602;28;20054;-63
2024/02/10 10:30:49;;;;;;;677.15;298.60;;;;;;;21.84;37.02;98863.00;4978682;28;20030;-63
2024/02/10 10:33:20;;;;;;;663.78;292.92;;;;;;;21.93;37.10;98864.22;4982002;28;20061;-63
2024/02/10 10:35:47;;;;;;;659.83;293.42;;;;;;;22.00;36.72;98870.97;4984910;28;20073;-63
2024/02/10 10:38:14;;;;;;;662.20;292.85;;;;;;;22.11;37.02;98865.88;4983015;28;20049;-63
2024/02/10 10:40:42;;;;;;;664.78;294.08;;;;;;;22.09;36.99;98860.00;4979011;28;20073;-62
2024/02/10 10:43:11;;;;;;;665.50;295.02;;;;;;;22.10;36.95;98873.03;4982545;28;20034;-63
2024/02/10 10:45:38;;;;;;;664.40;295.25;;;;;;;22.09;36.96;98866.13;4973385;28;20058;-63
2024/02/10 10:48:05;;;;;;;708.83;311.92;;;;;;;22.04;36.82;98858.03;4998303;28;20137;-63
2024/02/10 10:50:31;;;;;;;721.15;318.42;;;;;;;22.04;36.80;98863.34;4979764;28;20679;-62
2024/02/10 10:53:11;;;;;;;713.00;314.60;;;;;;;22.02;37.21;98874.19;4982023;28;20450;-63
2024/02/10 10:55:44;;;;;;;717.17;317.17;;;;;;;21.97;36.79;98871.44;4982848;28;20042;-62
2024/02/10 10:58:25;;;;;;;718.45;318.08;;;;;;;21.97;37.32;98875.94;4975223;28;20444;-62
2024/02/10 11:00:52;;;;;;;706.30;313.75;;;;;;;21.91;37.21;98871.63;4981504;28;20252;-62
2024/02/10 11:03:19;;;;;;;703.45;312.38;;;;;;;21.89;37.01;98863.88;4979487;28;20046;-63
2024/02/10 11:05:49;;;;;;;696.33;309.33;;;;;;;21.86;37.30;98871.53;4981268;28;20041;-62
2024/02/10 11:08:28;;;;;;;701.58;313.83;;;;;;;21.94;37.20;98869.28;4977031;28;20753;-63